createdAt,value
2023-10-30T00:01:40.071Z,50.74
2023-10-30T00:04:25.183Z,50.62
2023-10-30T00:07:10.240Z,50.54
2023-10-30T00:09:55.303Z,50.50
2023-10-30T00:12:40.490Z,50.12
2023-10-30T00:15:25.554Z,49.90
2023-10-30T00:18:10.855Z,50.57
2023-10-30T00:20:56.014Z,50.52
2023-10-30T00:23:41.061Z,50.65
2023-10-30T00:26:26.185Z,50.51
2023-10-30T00:29:11.166Z,50.41
2023-10-30T00:31:56.364Z,50.12
2023-10-30T00:34:41.445Z,50.21
2023-10-30T00:37:26.535Z,50.30
2023-10-30T00:40:11.611Z,50.77
2023-10-30T00:42:56.759Z,51.01
2023-10-30T00:45:41.966Z,51.19
2023-10-30T00:48:26.910Z,50.74
2023-10-30T00:51:12.221Z,50.63
2023-10-30T00:53:57.049Z,49.77
2023-10-30T00:56:42.332Z,50.47
2023-10-30T00:59:27.532Z,50.39
2023-10-30T01:02:12.612Z,50.64
2023-10-30T01:04:57.930Z,50.30
2023-10-30T01:07:42.731Z,50.42
2023-10-30T01:10:27.839Z,50.18
2023-10-30T01:13:12.815Z,49.78
2023-10-30T01:15:58.227Z,50.11
2023-10-30T01:18:43.297Z,50.12
2023-10-30T01:21:28.215Z,49.95
2023-10-30T01:24:13.416Z,50.24
2023-10-30T01:26:58.326Z,49.70
2023-10-30T01:29:43.561Z,49.24
2023-10-30T01:32:28.592Z,49.33
2023-10-30T01:35:13.788Z,49.14
2023-10-30T01:37:58.884Z,49.13
2023-10-30T01:40:43.988Z,49.27
2023-10-30T01:43:29.167Z,48.95
2023-10-30T01:46:14.142Z,48.40
2023-10-30T01:48:59.247Z,48.57
2023-10-30T01:51:44.280Z,48.98
2023-10-30T01:54:29.380Z,48.88
2023-10-30T01:57:14.376Z,48.82
2023-10-30T01:59:59.375Z,48.56
2023-10-30T02:02:44.649Z,48.18
2023-10-30T02:05:29.553Z,48.32
2023-10-30T02:08:14.749Z,48.57
2023-10-30T02:10:59.795Z,48.86
2023-10-30T02:13:44.994Z,49.21
2023-10-30T02:16:30.006Z,48.91
2023-10-30T02:19:15.195Z,48.63
2023-10-30T02:22:00.171Z,48.68
2023-10-30T02:24:45.299Z,48.64
2023-10-30T02:27:30.507Z,49.51
2023-10-30T02:30:15.576Z,49.16
2023-10-30T02:33:00.533Z,49.58
2023-10-30T02:35:45.604Z,50.04
2023-10-30T02:38:30.874Z,50.08
2023-10-30T02:41:16.060Z,49.94
2023-10-30T02:44:01.228Z,49.60
2023-10-30T02:46:46.393Z,50.28
2023-10-30T02:49:31.420Z,50.31
2023-10-30T02:52:16.648Z,49.73
2023-10-30T02:55:01.806Z,50.04
2023-10-30T02:57:47.000Z,50.12
2023-10-30T03:00:31.991Z,49.72
2023-10-30T03:03:17.193Z,48.73
2023-10-30T03:06:02.204Z,48.87
2023-10-30T03:08:47.281Z,49.48
2023-10-30T03:11:32.410Z,48.83
2023-10-30T03:14:17.473Z,49.05
2023-10-30T03:17:02.646Z,49.63
2023-10-30T03:19:48.051Z,49.98
2023-10-30T03:22:32.988Z,49.77
2023-10-30T03:25:18.169Z,49.93
2023-10-30T03:28:03.125Z,49.82
2023-10-30T03:30:48.296Z,50.06
2023-10-30T03:33:33.291Z,50.17
2023-10-30T03:36:18.456Z,50.37
2023-10-30T03:39:03.626Z,50.76
2023-10-30T03:41:48.783Z,50.67
2023-10-30T03:44:33.899Z,50.94
2023-10-30T03:47:18.939Z,50.70
2023-10-30T03:50:04.152Z,50.55
2023-10-30T03:52:49.240Z,50.33
2023-10-30T03:55:34.411Z,50.45
2023-10-30T03:58:19.482Z,50.24
2023-10-30T04:01:04.563Z,50.08
2023-10-30T04:03:49.785Z,49.65
2023-10-30T04:06:34.772Z,49.60
2023-10-30T04:09:20.049Z,49.68
2023-10-30T04:12:05.040Z,49.43
2023-10-30T04:14:50.395Z,49.55
2023-10-30T04:17:35.489Z,49.12
2023-10-30T04:20:20.585Z,49.33
2023-10-30T04:23:05.700Z,49.73
2023-10-30T04:25:50.624Z,50.13
2023-10-30T04:28:35.973Z,49.82
2023-10-30T04:31:20.959Z,50.29
2023-10-30T04:34:06.162Z,50.58
2023-10-30T04:36:51.269Z,50.35
2023-10-30T04:39:36.333Z,50.23
2023-10-30T04:42:21.581Z,50.39
2023-10-30T04:45:06.544Z,50.93
2023-10-30T04:47:51.861Z,50.41
2023-10-30T04:50:36.796Z,50.81
2023-10-30T04:53:22.181Z,51.31
2023-10-30T04:56:07.336Z,50.48
2023-10-30T04:58:52.504Z,51.19
2023-10-30T05:01:37.681Z,50.75
2023-10-30T05:04:22.776Z,50.22
2023-10-30T05:07:08.174Z,49.96
2023-10-30T05:09:53.173Z,50.54
2023-10-30T05:12:38.483Z,50.60
2023-10-30T05:15:23.565Z,50.35
2023-10-30T05:18:08.884Z,50.06
2023-10-30T05:20:54.033Z,49.69
2023-10-30T05:23:38.794Z,50.13
2023-10-30T05:26:23.918Z,50.45
2023-10-30T05:29:09.041Z,51.12
2023-10-30T05:31:54.150Z,51.19
2023-10-30T05:34:40.718Z,51.04
2023-10-30T05:37:26.838Z,51.32
2023-10-30T05:40:12.675Z,50.92
2023-10-30T05:42:57.496Z,51.17
2023-10-30T05:45:42.764Z,51.11
2023-10-30T05:48:27.838Z,51.37
2023-10-30T05:51:13.143Z,50.96
2023-10-30T05:53:58.347Z,51.09
2023-10-30T05:56:43.484Z,50.67
2023-10-30T05:59:28.623Z,50.84
2023-10-30T06:02:13.621Z,50.72
2023-10-30T06:04:59.050Z,50.21
2023-10-30T06:07:44.103Z,50.53
2023-10-30T06:10:29.223Z,49.72
2023-10-30T06:13:14.195Z,50.20
2023-10-30T06:15:59.246Z,50.04
2023-10-30T06:18:44.452Z,50.00
2023-10-30T06:21:29.567Z,49.67
2023-10-30T06:24:14.594Z,49.70
2023-10-30T06:26:59.624Z,50.12
2023-10-30T06:29:44.843Z,49.99
2023-10-30T06:32:29.980Z,50.18
2023-10-30T06:35:15.161Z,50.15
2023-10-30T06:38:00.222Z,50.00
2023-10-30T06:40:45.348Z,49.85
2023-10-30T06:43:30.530Z,50.26
2023-10-30T06:46:15.497Z,49.92
2023-10-30T06:49:00.670Z,49.48
2023-10-30T06:51:45.840Z,50.36
2023-10-30T06:54:31.048Z,48.73
2023-10-30T06:57:16.213Z,48.58
2023-10-30T07:00:01.216Z,49.08
2023-10-30T07:02:46.370Z,48.61
2023-10-30T07:05:31.336Z,49.36
2023-10-30T07:08:16.581Z,48.82
2023-10-30T07:11:01.592Z,47.87
2023-10-30T07:13:46.788Z,48.72
2023-10-30T07:16:32.026Z,49.07
2023-10-30T07:19:17.077Z,48.53
2023-10-30T07:22:02.360Z,48.77
2023-10-30T07:24:47.502Z,49.66
2023-10-30T07:27:32.599Z,47.68
2023-10-30T07:30:17.663Z,46.34
2023-10-30T07:33:02.932Z,47.20
2023-10-30T07:35:48.963Z,46.05
2023-10-30T07:38:34.119Z,46.43
2023-10-30T07:41:19.394Z,46.63
2023-10-30T07:44:04.441Z,47.84
2023-10-30T07:46:49.656Z,48.76
2023-10-30T07:49:34.663Z,48.89
2023-10-30T07:52:19.883Z,47.88
2023-10-30T07:55:05.007Z,47.98
2023-10-30T07:57:50.191Z,48.29
2023-10-30T08:00:44.261Z,48.15
2023-10-30T08:03:39.866Z,48.18
2023-10-30T08:06:24.793Z,49.03
2023-10-30T08:09:09.852Z,49.08
2023-10-30T08:11:54.921Z,48.71
2023-10-30T08:14:39.989Z,47.77
2023-10-30T08:17:24.969Z,47.96
2023-10-30T08:20:10.168Z,48.57
2023-10-30T08:22:55.171Z,48.89
2023-10-30T08:25:40.183Z,48.94
2023-10-30T08:28:25.454Z,48.71
2023-10-30T08:31:10.596Z,46.58
2023-10-30T08:33:55.717Z,46.01
2023-10-30T08:36:40.680Z,46.40
2023-10-30T08:39:25.907Z,44.50
2023-10-30T08:42:10.883Z,45.74
2023-10-30T08:44:56.017Z,46.52
2023-10-30T08:47:41.073Z,47.16
2023-10-30T08:50:26.697Z,46.68
2023-10-30T08:53:11.944Z,46.68
2023-10-30T08:55:58.889Z,46.99
2023-10-30T08:58:44.131Z,46.47
2023-10-30T09:01:29.199Z,46.06
2023-10-30T09:04:14.454Z,45.22
2023-10-30T09:06:59.490Z,44.93
2023-10-30T09:09:44.432Z,43.66
2023-10-30T09:12:29.677Z,44.67
2023-10-30T09:15:14.619Z,46.33
2023-10-30T09:17:59.783Z,43.85
2023-10-30T09:20:44.703Z,45.03
2023-10-30T09:23:29.786Z,44.46
2023-10-30T09:26:14.925Z,45.18
2023-10-30T09:29:00.041Z,45.73
2023-10-30T09:31:45.317Z,45.01
2023-10-30T09:34:30.352Z,44.47
2023-10-30T09:37:15.570Z,43.90
2023-10-30T09:40:00.737Z,44.06
2023-10-30T09:42:45.955Z,44.39
2023-10-30T09:45:31.159Z,44.63
2023-10-30T09:48:16.075Z,44.65
2023-10-30T09:51:01.259Z,44.18
2023-10-30T09:53:46.313Z,43.58
2023-10-30T09:56:31.585Z,42.72
2023-10-30T09:59:16.604Z,42.11
2023-10-30T10:02:02.066Z,42.78
2023-10-30T10:04:47.329Z,43.29
2023-10-30T10:07:32.408Z,42.53
2023-10-30T10:10:17.585Z,41.63
2023-10-30T10:13:02.717Z,41.69
2023-10-30T10:15:47.855Z,41.89
2023-10-30T10:18:32.715Z,42.70
2023-10-30T10:21:17.883Z,42.14
2023-10-30T10:24:03.157Z,41.92
2023-10-30T10:26:48.079Z,41.70
2023-10-30T10:29:33.327Z,42.04
2023-10-30T10:32:18.353Z,43.00
2023-10-30T10:35:03.530Z,42.67
2023-10-30T10:37:48.529Z,41.83
2023-10-30T10:40:33.786Z,41.13
2023-10-30T10:43:18.846Z,42.49
2023-10-30T10:46:04.098Z,43.09
2023-10-30T10:48:49.165Z,42.26
2023-10-30T10:51:34.107Z,43.61
2023-10-30T10:54:19.200Z,42.92
2023-10-30T10:57:04.347Z,42.60
2023-10-30T10:59:49.630Z,42.09
2023-10-30T11:02:34.561Z,42.16
2023-10-30T11:05:19.585Z,42.46
2023-10-30T11:08:04.718Z,41.31
2023-10-30T11:10:49.901Z,41.54
2023-10-30T11:13:35.141Z,40.71
2023-10-30T11:16:20.262Z,40.49
2023-10-30T11:19:05.375Z,39.23
2023-10-30T11:21:50.644Z,39.25
2023-10-30T11:24:35.657Z,39.03
2023-10-30T11:27:20.643Z,38.74
2023-10-30T11:30:05.583Z,39.29
2023-10-30T11:32:50.946Z,38.11
2023-10-30T11:35:35.907Z,38.34
2023-10-30T11:38:21.119Z,37.71
2023-10-30T11:41:06.266Z,37.42
2023-10-30T11:43:51.471Z,39.61
2023-10-30T11:46:36.728Z,39.33
2023-10-30T11:49:21.611Z,40.78
2023-10-30T11:52:06.915Z,39.40
2023-10-30T11:54:52.484Z,39.75
2023-10-30T11:57:38.322Z,40.47
2023-10-30T12:00:23.211Z,40.06
2023-10-30T12:03:08.226Z,39.67
2023-10-30T12:05:53.391Z,39.19
2023-10-30T12:08:38.380Z,38.74
2023-10-30T12:11:23.543Z,39.29
2023-10-30T12:14:08.536Z,39.43
2023-10-30T12:16:53.791Z,39.10
2023-10-30T12:19:38.742Z,39.40
2023-10-30T12:22:24.100Z,38.19
2023-10-30T12:25:09.146Z,38.48
2023-10-30T12:27:54.283Z,37.46
2023-10-30T12:30:39.502Z,39.16
2023-10-30T12:33:24.451Z,39.09
2023-10-30T12:36:09.500Z,38.51
2023-10-30T12:38:54.601Z,38.84
2023-10-30T12:41:39.706Z,37.33
2023-10-30T12:44:24.781Z,38.16
2023-10-30T12:47:12.452Z,37.47
2023-10-30T12:49:57.520Z,36.81
2023-10-30T12:52:42.557Z,38.71
2023-10-30T12:55:27.755Z,36.48
2023-10-30T12:58:12.769Z,37.62
2023-10-30T13:03:45.662Z,37.63
2023-10-30T13:06:30.700Z,37.06
2023-10-30T13:09:15.752Z,36.36
2023-10-30T13:12:01.009Z,39.69
2023-10-30T13:14:46.169Z,40.06
2023-10-30T13:17:31.287Z,39.57
2023-10-30T13:20:16.252Z,37.26
2023-10-30T13:23:01.406Z,38.79
2023-10-30T13:25:46.419Z,39.87
2023-10-30T13:28:31.634Z,40.80
2023-10-30T13:31:16.749Z,40.93
2023-10-30T13:34:02.058Z,41.37
2023-10-30T13:36:47.096Z,41.95
2023-10-30T13:39:32.145Z,42.63
2023-10-30T13:42:17.351Z,41.92
2023-10-30T13:45:02.341Z,41.59
2023-10-30T13:47:47.611Z,42.54
2023-10-30T13:50:32.731Z,42.28
2023-10-30T13:53:17.876Z,42.46
2023-10-30T13:56:02.991Z,41.76
2023-10-30T13:58:48.105Z,42.39
2023-10-30T14:01:33.455Z,42.73
2023-10-30T14:04:18.633Z,42.55
2023-10-30T14:07:03.846Z,42.96
2023-10-30T14:09:48.877Z,42.33
2023-10-30T14:12:33.747Z,43.86
2023-10-30T14:15:18.794Z,41.90
2023-10-30T14:18:04.048Z,41.77
2023-10-30T14:20:49.308Z,41.19
2023-10-30T14:23:34.419Z,43.70
2023-10-30T14:26:19.593Z,45.50
2023-10-30T14:29:04.519Z,45.44
2023-10-30T14:31:49.762Z,42.80
2023-10-30T14:34:35.017Z,42.97
2023-10-30T14:37:20.051Z,42.69
2023-10-30T14:40:05.289Z,44.06
2023-10-30T14:42:50.216Z,41.90
2023-10-30T14:45:35.319Z,42.71
2023-10-30T14:48:20.151Z,43.66
2023-10-30T14:51:05.372Z,44.06
2023-10-30T14:53:50.536Z,44.10
2023-10-30T14:56:35.545Z,43.59
2023-10-30T14:59:20.717Z,45.34
2023-10-30T15:02:05.603Z,46.42
2023-10-30T15:04:51.112Z,46.23
2023-10-30T15:07:36.428Z,45.30
2023-10-30T15:10:21.543Z,46.01
2023-10-30T15:13:06.744Z,47.71
2023-10-30T15:15:51.809Z,51.40
2023-10-30T15:18:36.899Z,50.57
2023-10-30T15:21:21.990Z,48.22
2023-10-30T15:24:07.071Z,51.66
2023-10-30T15:26:52.121Z,54.03
2023-10-30T15:29:37.341Z,54.74
2023-10-30T15:32:22.475Z,55.94
2023-10-30T15:35:07.589Z,54.80
2023-10-30T15:37:52.738Z,55.13
2023-10-30T15:40:37.772Z,55.46
2023-10-30T15:43:22.979Z,56.57
2023-10-30T15:46:07.891Z,58.01
2023-10-30T15:48:52.988Z,57.84
2023-10-30T15:51:38.091Z,58.67
2023-10-30T16:00:03.273Z,58.62
2023-10-30T16:02:48.301Z,58.19
2023-10-30T16:05:47.290Z,58.60
2023-10-30T16:14:13.597Z,58.86
2023-10-30T16:20:21.477Z,59.09
2023-10-30T16:22:51.507Z,59.71
2023-10-30T16:25:36.664Z,58.99
2023-10-30T16:28:21.809Z,58.44
2023-10-30T16:31:06.848Z,58.75
2023-10-30T16:33:51.792Z,58.88
2023-10-30T16:36:36.706Z,58.90
2023-10-30T16:39:21.906Z,59.41
2023-10-30T16:42:06.900Z,61.18
2023-10-30T16:44:52.130Z,62.00
2023-10-30T16:47:37.254Z,61.75
2023-10-30T16:50:22.358Z,60.84
2023-10-30T16:53:07.524Z,61.85
2023-10-30T16:55:52.479Z,62.69
2023-10-30T16:58:37.791Z,62.03
2023-10-30T17:01:22.870Z,61.52
2023-10-30T17:04:08.032Z,62.95
2023-10-30T17:06:53.049Z,63.64
2023-10-30T17:09:38.227Z,64.88
2023-10-30T17:12:23.488Z,64.56
2023-10-30T17:15:08.711Z,66.21
2023-10-30T17:17:53.746Z,68.14
2023-10-30T17:20:38.914Z,67.56
2023-10-30T17:23:24.152Z,67.88
2023-10-30T17:26:09.182Z,66.91
2023-10-30T17:28:54.330Z,66.61
2023-10-30T17:31:39.488Z,66.47
2023-10-30T17:34:24.559Z,66.26
2023-10-30T17:37:09.665Z,67.56
2023-10-30T17:39:55.020Z,67.33
2023-10-30T17:42:39.886Z,68.13
2023-10-30T17:45:24.937Z,67.87
2023-10-30T17:48:10.176Z,67.52
2023-10-30T17:50:55.230Z,67.66
2023-10-30T17:53:40.338Z,67.35
2023-10-30T17:56:25.571Z,68.33
2023-10-30T17:59:10.572Z,68.16
2023-10-30T18:01:55.886Z,68.70
2023-10-30T18:04:41.059Z,67.61
2023-10-30T18:07:26.021Z,68.13
2023-10-30T18:10:11.154Z,68.39
2023-10-30T18:12:56.333Z,69.24
2023-10-30T18:15:41.669Z,68.21
2023-10-30T18:18:26.844Z,69.03
2023-10-30T18:21:11.941Z,68.96
2023-10-30T18:23:56.807Z,68.82
2023-10-30T18:26:41.941Z,69.47
2023-10-30T18:29:29.080Z,69.63
2023-10-30T18:32:14.019Z,70.76
2023-10-30T18:34:59.273Z,72.21
2023-10-30T18:37:44.304Z,73.41
2023-10-30T18:40:29.465Z,72.56
2023-10-30T18:43:14.299Z,74.19
2023-10-30T18:45:59.446Z,74.43
2023-10-30T18:48:44.630Z,73.71
2023-10-30T18:51:29.684Z,73.89
2023-10-30T18:54:14.900Z,75.40
2023-10-30T18:56:59.866Z,75.85
2023-10-30T18:59:44.996Z,75.88
2023-10-30T19:02:30.112Z,76.93
2023-10-30T19:05:15.418Z,75.72
2023-10-30T19:08:00.494Z,76.04
2023-10-30T19:10:45.425Z,76.07
2023-10-30T19:13:30.561Z,75.35
2023-10-30T19:16:15.634Z,74.97
2023-10-30T19:19:00.648Z,74.95
2023-10-30T19:21:45.661Z,74.01
2023-10-30T19:24:30.796Z,73.74
2023-10-30T19:27:15.731Z,72.46
2023-10-30T19:30:00.855Z,71.99
2023-10-30T19:32:45.981Z,72.90
2023-10-30T19:35:31.111Z,73.75
2023-10-30T19:38:16.355Z,74.84
2023-10-30T19:41:01.482Z,75.22
2023-10-30T19:43:46.550Z,75.59
2023-10-30T19:46:36.581Z,76.74
2023-10-30T19:49:24.190Z,77.24
2023-10-30T19:52:09.458Z,77.73
2023-10-30T19:54:54.701Z,77.21
2023-10-30T19:57:39.626Z,77.10
2023-10-30T20:00:24.835Z,76.61
2023-10-30T20:03:09.794Z,76.30
2023-10-30T20:05:55.142Z,75.41
2023-10-30T20:08:40.209Z,75.55
2023-10-30T20:11:25.276Z,76.84
2023-10-30T20:14:10.458Z,75.03
2023-10-30T20:16:55.521Z,73.63
2023-10-30T20:19:40.685Z,73.22
2023-10-30T20:22:25.658Z,72.44
2023-10-30T20:25:10.692Z,71.93
2023-10-30T20:27:55.822Z,72.09
2023-10-30T20:30:40.990Z,72.99
2023-10-30T20:33:26.100Z,72.67
2023-10-30T20:36:11.205Z,72.43
2023-10-30T20:38:56.496Z,71.90
2023-10-30T20:41:41.502Z,71.62
2023-10-30T20:44:26.763Z,71.52
2023-10-30T20:47:11.713Z,71.34
2023-10-30T20:49:56.944Z,71.17
2023-10-30T20:52:41.978Z,71.18
2023-10-30T20:55:27.019Z,71.62
2023-10-30T20:58:12.229Z,71.02
2023-10-30T21:00:57.285Z,69.95
2023-10-30T21:03:42.643Z,69.42
2023-10-30T21:06:27.459Z,68.58
2023-10-30T21:09:12.572Z,69.10
2023-10-30T21:11:57.614Z,68.42
2023-10-30T21:14:42.680Z,68.03
2023-10-30T21:17:27.929Z,68.85
2023-10-30T21:20:12.928Z,68.13
2023-10-30T21:22:57.981Z,67.39
2023-10-30T21:25:42.973Z,66.77
2023-10-30T21:28:28.266Z,66.75
2023-10-30T21:31:13.522Z,67.02
2023-10-30T21:33:58.436Z,67.00
2023-10-30T21:36:43.579Z,66.12
2023-10-30T21:39:28.648Z,65.24
2023-10-30T21:42:13.834Z,66.94
2023-10-30T21:44:58.813Z,67.84
2023-10-30T21:47:43.962Z,67.01
2023-10-30T21:50:29.139Z,66.16
2023-10-30T21:53:14.269Z,65.42
2023-10-30T21:55:59.400Z,65.07
2023-10-30T21:58:44.401Z,64.69
2023-10-30T22:01:29.615Z,64.77
2023-10-30T22:04:14.679Z,66.89
2023-10-30T22:06:59.842Z,67.50
2023-10-30T22:09:44.881Z,67.92
2023-10-30T22:12:30.131Z,67.94
2023-10-30T22:15:15.283Z,68.54
2023-10-30T22:18:00.607Z,68.70
2023-10-30T22:20:45.749Z,69.52
2023-10-30T22:23:30.805Z,67.90
2023-10-30T22:26:15.969Z,67.86
2023-10-30T22:29:00.992Z,67.52
2023-10-30T22:31:46.067Z,66.73
2023-10-30T22:34:31.192Z,66.68
2023-10-30T22:37:16.195Z,67.83
2023-10-30T22:40:01.430Z,66.76
2023-10-30T22:42:46.505Z,67.22
2023-10-30T22:45:31.768Z,67.35
2023-10-30T22:48:16.785Z,66.91
2023-10-30T22:51:02.012Z,66.19
2023-10-30T22:53:47.008Z,65.48
2023-10-30T22:56:32.171Z,65.51
2023-10-30T22:59:17.529Z,65.71
2023-10-30T23:02:02.512Z,66.13
2023-10-30T23:04:47.747Z,67.45
2023-10-30T23:07:33.273Z,66.55
2023-10-30T23:10:18.703Z,66.61
2023-10-30T23:13:03.831Z,66.80
2023-10-30T23:15:48.753Z,67.29
2023-10-30T23:18:33.951Z,65.86
2023-10-30T23:21:19.007Z,63.22
2023-10-30T23:24:04.029Z,63.99
2023-10-30T23:26:49.069Z,65.33
2023-10-30T23:29:34.175Z,65.61
2023-10-30T23:32:19.250Z,66.55
2023-10-30T23:35:04.459Z,66.37
2023-10-30T23:37:49.563Z,66.97
2023-10-30T23:40:34.528Z,67.88
2023-10-30T23:43:19.799Z,68.45
2023-10-30T23:46:04.908Z,67.57
2023-10-30T23:48:50.009Z,67.62
2023-10-30T23:51:35.157Z,66.72
2023-10-30T23:54:25.360Z,67.00
2023-10-30T23:57:15.902Z,66.84
